createdAt,value
2022-11-24T00:01:18.973Z,8.95
2022-11-24T00:03:52.997Z,8.95
2022-11-24T00:06:22.228Z,8.93
2022-11-24T00:08:50.104Z,8.90
2022-11-24T00:11:20.436Z,8.92
2022-11-24T00:13:48.631Z,8.91
2022-11-24T00:16:19.361Z,8.93
2022-11-24T00:18:49.757Z,8.96
2022-11-24T00:21:20.364Z,9.01
2022-11-24T00:23:50.494Z,9.03
2022-11-24T00:26:20.277Z,9.01
2022-11-24T00:28:49.889Z,8.99
2022-11-24T00:31:20.550Z,8.97
2022-11-24T00:33:50.397Z,8.97
2022-11-24T00:36:19.737Z,8.96
2022-11-24T00:38:49.450Z,8.93
2022-11-24T00:41:17.702Z,8.93
2022-11-24T00:43:45.479Z,8.91
2022-11-24T00:46:13.442Z,8.87
2022-11-24T00:48:41.346Z,8.88
2022-11-24T00:51:11.208Z,8.87
2022-11-24T00:53:39.050Z,8.87
2022-11-24T00:56:09.532Z,8.83
2022-11-24T00:58:37.921Z,8.84
2022-11-24T01:01:09.463Z,8.85
2022-11-24T01:03:37.650Z,8.82
2022-11-24T01:06:06.888Z,8.87
2022-11-24T01:08:35.256Z,8.89
2022-11-24T01:11:15.704Z,8.85
2022-11-24T01:13:45.314Z,8.88
2022-11-24T01:16:18.133Z,8.86
2022-11-24T01:18:46.699Z,8.85
2022-11-24T01:21:15.273Z,8.83
2022-11-24T01:23:44.683Z,8.81
2022-11-24T01:26:16.635Z,8.80
2022-11-24T01:28:47.530Z,8.80
2022-11-24T01:31:17.703Z,8.79
2022-11-24T01:33:45.553Z,8.78
2022-11-24T01:36:13.680Z,8.78
2022-11-24T01:38:41.631Z,8.78
2022-11-24T01:41:14.540Z,8.79
2022-11-24T01:43:43.545Z,8.79
2022-11-24T01:46:19.243Z,8.82
2022-11-24T01:48:52.074Z,8.87
2022-11-24T01:51:24.673Z,8.88
2022-11-24T01:53:57.970Z,8.92
2022-11-24T01:56:28.726Z,8.94
2022-11-24T01:59:00.330Z,8.95
2022-11-24T02:01:29.406Z,8.95
2022-11-24T02:03:58.450Z,8.94
2022-11-24T02:06:29.126Z,8.94
2022-11-24T02:09:01.149Z,8.93
2022-11-24T02:11:35.930Z,8.89
2022-11-24T02:14:06.266Z,8.88
2022-11-24T02:16:36.521Z,8.87
2022-11-24T02:19:10.413Z,8.87
2022-11-24T02:21:38.422Z,8.86
2022-11-24T02:24:12.797Z,8.83
2022-11-24T02:26:44.401Z,8.85
2022-11-24T02:29:13.382Z,8.86
2022-11-24T02:31:46.457Z,8.83
2022-11-24T02:34:14.367Z,8.83
2022-11-24T02:36:42.436Z,8.85
2022-11-24T02:39:12.821Z,8.87
2022-11-24T02:41:44.903Z,8.87
2022-11-24T02:44:16.646Z,8.89
2022-11-24T02:46:44.885Z,8.88
2022-11-24T02:49:12.786Z,8.89
2022-11-24T02:51:41.025Z,8.90
2022-11-24T02:54:08.867Z,8.90
2022-11-24T02:56:36.735Z,8.89
2022-11-24T02:59:06.030Z,8.91
2022-11-24T03:01:33.857Z,8.93
2022-11-24T03:04:01.919Z,8.93
2022-11-24T03:06:29.739Z,8.94
2022-11-24T03:08:57.832Z,8.93
2022-11-24T03:11:25.867Z,8.95
2022-11-24T03:13:54.042Z,8.96
2022-11-24T03:16:23.573Z,8.97
2022-11-24T03:18:52.036Z,9.00
2022-11-24T03:21:20.347Z,9.03
2022-11-24T03:23:48.477Z,9.05
2022-11-24T03:26:18.670Z,9.07
2022-11-24T03:28:46.755Z,9.07
2022-11-24T03:31:14.851Z,9.07
2022-11-24T03:33:44.158Z,9.08
2022-11-24T03:36:11.979Z,9.07
2022-11-24T03:38:39.916Z,9.05
2022-11-24T03:41:07.820Z,9.02
2022-11-24T03:43:40.399Z,9.00
2022-11-24T03:46:11.684Z,9.01
2022-11-24T03:48:39.824Z,8.95
2022-11-24T03:51:09.102Z,8.97
2022-11-24T03:53:37.214Z,8.99
2022-11-24T03:56:05.358Z,9.00
2022-11-24T03:58:33.267Z,9.03
2022-11-24T04:01:01.044Z,9.05
2022-11-24T04:03:28.884Z,9.07
2022-11-24T04:05:56.857Z,9.10
2022-11-24T04:08:26.061Z,9.15
2022-11-24T04:10:55.283Z,9.15
2022-11-24T04:13:23.649Z,9.20
2022-11-24T04:15:51.930Z,9.22
2022-11-24T04:18:20.879Z,9.23
2022-11-24T04:20:51.489Z,9.24
2022-11-24T04:23:20.268Z,9.26
2022-11-24T04:25:49.408Z,9.26
2022-11-24T04:28:17.422Z,9.25
2022-11-24T04:30:45.380Z,9.30
2022-11-24T04:33:14.061Z,9.32
2022-11-24T04:35:42.109Z,9.33
2022-11-24T04:38:09.964Z,9.33
2022-11-24T04:40:38.752Z,9.35
2022-11-24T04:43:08.115Z,9.37
2022-11-24T04:45:36.125Z,9.40
2022-11-24T04:48:04.137Z,9.41
2022-11-24T04:50:31.927Z,9.41
2022-11-24T04:52:59.771Z,9.46
2022-11-24T04:55:27.710Z,9.51
2022-11-24T04:57:55.523Z,9.52
2022-11-24T05:00:24.824Z,9.57
2022-11-24T05:02:52.662Z,9.57
2022-11-24T05:05:20.676Z,9.58
2022-11-24T05:07:48.795Z,9.58
2022-11-24T05:10:34.583Z,9.57
2022-11-24T05:13:04.352Z,9.58
2022-11-24T05:15:34.202Z,9.58
2022-11-24T05:18:06.003Z,9.58
2022-11-24T05:20:33.870Z,9.59
2022-11-24T05:23:05.012Z,9.60
2022-11-24T05:25:33.551Z,9.61
2022-11-24T05:28:02.495Z,9.61
2022-11-24T05:30:30.594Z,9.62
2022-11-24T05:33:00.209Z,9.61
2022-11-24T05:35:28.368Z,9.61
2022-11-24T05:37:56.405Z,9.62
2022-11-24T05:40:24.207Z,9.65
2022-11-24T05:42:52.100Z,9.68
2022-11-24T05:45:21.590Z,9.70
2022-11-24T05:47:50.896Z,9.71
2022-11-24T05:50:22.035Z,9.70
2022-11-24T05:52:50.538Z,9.70
2022-11-24T05:55:20.505Z,9.69
2022-11-24T05:57:48.317Z,9.67
2022-11-24T06:00:18.243Z,9.67
2022-11-24T06:02:46.218Z,9.66
2022-11-24T06:05:14.294Z,9.65
2022-11-24T06:07:43.483Z,9.61
2022-11-24T06:10:11.667Z,9.64
2022-11-24T06:12:39.868Z,9.63
2022-11-24T06:15:08.547Z,9.63
2022-11-24T06:17:36.568Z,9.60
2022-11-24T06:20:04.949Z,9.60
2022-11-24T06:22:33.500Z,9.61
2022-11-24T06:25:02.930Z,9.61
2022-11-24T06:27:30.693Z,9.65
2022-11-24T06:29:58.611Z,9.65
2022-11-24T06:32:26.429Z,9.65
2022-11-24T06:34:54.409Z,9.64
2022-11-24T06:37:22.214Z,9.66
2022-11-24T06:39:50.166Z,9.64
2022-11-24T06:42:19.708Z,9.65
2022-11-24T06:44:48.033Z,9.63
2022-11-24T06:47:16.208Z,9.62
2022-11-24T06:49:44.212Z,9.60
2022-11-24T06:52:12.109Z,9.60
2022-11-24T06:54:41.968Z,9.56
2022-11-24T06:57:10.080Z,9.57
2022-11-24T06:59:39.330Z,9.56
2022-11-24T07:02:07.626Z,9.54
2022-11-24T07:04:35.995Z,9.55
2022-11-24T07:07:04.053Z,9.55
2022-11-24T07:09:32.247Z,9.56
2022-11-24T07:12:00.205Z,9.61
2022-11-24T07:14:27.982Z,9.64
2022-11-24T07:16:57.349Z,9.68
2022-11-24T07:19:25.463Z,9.69
2022-11-24T07:21:53.895Z,9.69
2022-11-24T07:24:21.746Z,9.67
2022-11-24T07:26:49.553Z,9.66
2022-11-24T07:29:17.508Z,9.63
2022-11-24T07:31:46.039Z,9.64
2022-11-24T07:34:15.775Z,9.61
2022-11-24T07:36:45.163Z,9.67
2022-11-24T07:39:13.108Z,9.68
2022-11-24T07:41:40.963Z,9.69
2022-11-24T07:44:09.000Z,9.67
2022-11-24T07:46:36.835Z,9.68
2022-11-24T07:49:04.834Z,9.68
2022-11-24T07:51:34.360Z,9.68
2022-11-24T07:54:02.439Z,9.70
2022-11-24T07:56:30.282Z,9.73
2022-11-24T07:58:58.390Z,9.74
2022-11-24T08:01:26.265Z,9.80
2022-11-24T08:03:54.261Z,9.79
2022-11-24T08:06:26.114Z,9.81
2022-11-24T08:08:58.873Z,9.78
2022-11-24T08:11:27.309Z,9.80
2022-11-24T08:13:55.253Z,9.81
2022-11-24T08:16:23.203Z,9.83
2022-11-24T08:18:52.679Z,9.84
2022-11-24T08:21:23.218Z,9.84
2022-11-24T08:23:54.926Z,9.84
2022-11-24T08:26:25.435Z,9.84
2022-11-24T08:28:56.694Z,9.83
2022-11-24T08:31:27.412Z,9.85
2022-11-24T08:33:56.449Z,9.85
2022-11-24T08:36:24.326Z,9.83
2022-11-24T08:38:55.991Z,9.84
2022-11-24T08:41:26.014Z,9.90
2022-11-24T08:43:54.471Z,9.92
2022-11-24T08:46:23.512Z,9.93
2022-11-24T08:48:53.425Z,9.95
2022-11-24T08:51:24.449Z,9.97
2022-11-24T08:53:57.059Z,9.98
2022-11-24T08:56:27.143Z,9.99
2022-11-24T08:58:55.799Z,9.96
2022-11-24T09:01:24.427Z,9.95
2022-11-24T09:03:53.254Z,9.95
2022-11-24T09:06:23.883Z,9.96
2022-11-24T09:08:52.033Z,9.99
2022-11-24T09:11:20.427Z,9.99
2022-11-24T09:13:49.630Z,9.99
2022-11-24T09:16:19.023Z,10.02
2022-11-24T09:18:47.908Z,10.03
2022-11-24T09:21:17.084Z,10.04
2022-11-24T09:23:46.991Z,10.07
2022-11-24T09:26:17.587Z,10.10
2022-11-24T09:28:45.802Z,10.15
2022-11-24T09:31:18.021Z,10.18
2022-11-24T09:33:46.763Z,10.20
2022-11-24T09:36:15.292Z,10.22
2022-11-24T09:38:43.224Z,10.18
2022-11-24T09:41:32.323Z,10.21
2022-11-24T09:44:04.594Z,10.26
2022-11-24T09:46:42.051Z,10.29
2022-11-24T09:49:15.263Z,10.32
2022-11-24T09:51:46.857Z,10.37
2022-11-24T09:54:19.427Z,10.35
2022-11-24T09:56:48.713Z,10.43
2022-11-24T09:59:18.844Z,10.47
2022-11-24T10:01:49.608Z,10.50
2022-11-24T10:04:21.038Z,10.53
2022-11-24T10:06:56.036Z,10.63
2022-11-24T10:09:39.961Z,10.69
2022-11-24T10:12:21.893Z,10.79
2022-11-24T10:15:14.828Z,10.89
2022-11-24T10:17:55.255Z,10.96
2022-11-24T10:20:29.731Z,11.00
2022-11-24T10:23:10.180Z,11.00
2022-11-24T10:25:47.411Z,10.98
2022-11-24T10:28:17.115Z,11.12
2022-11-24T10:30:45.620Z,11.21
2022-11-24T10:33:19.391Z,11.26
2022-11-24T10:35:52.543Z,11.26
2022-11-24T10:38:31.745Z,11.22
2022-11-24T10:41:04.241Z,11.29
2022-11-24T10:43:32.520Z,11.32
2022-11-24T10:46:10.947Z,11.37
2022-11-24T10:48:45.049Z,11.38
2022-11-24T10:51:43.883Z,11.34
2022-11-24T10:54:17.928Z,11.40
2022-11-24T10:56:47.964Z,11.46
2022-11-24T10:59:33.361Z,11.49
2022-11-24T11:02:02.223Z,11.62
2022-11-24T11:04:33.267Z,11.68
2022-11-24T11:07:17.336Z,11.73
2022-11-24T11:09:45.471Z,11.81
2022-11-24T11:12:42.819Z,11.88
2022-11-24T11:15:27.150Z,11.78
2022-11-24T11:17:59.444Z,11.82
2022-11-24T11:20:32.470Z,11.90
2022-11-24T11:23:03.023Z,11.95
2022-11-24T11:25:34.140Z,11.98
2022-11-24T11:28:35.184Z,11.95
2022-11-24T11:31:22.184Z,11.99
2022-11-24T11:34:09.408Z,11.91
2022-11-24T11:36:45.041Z,11.92
2022-11-24T11:39:23.338Z,11.93
2022-11-24T11:41:54.175Z,12.02
2022-11-24T11:44:32.989Z,11.99
2022-11-24T11:47:04.323Z,12.10
2022-11-24T11:49:32.276Z,12.13
2022-11-24T11:52:22.227Z,12.12
2022-11-24T11:55:17.395Z,12.12
2022-11-24T11:57:52.007Z,12.14
2022-11-24T12:00:22.397Z,12.06
2022-11-24T12:03:15.907Z,12.06
2022-11-24T12:05:53.563Z,12.03
2022-11-24T12:09:03.256Z,12.04
2022-11-24T12:11:36.021Z,12.09
2022-11-24T12:14:26.492Z,12.13
2022-11-24T12:17:03.545Z,12.24
2022-11-24T12:19:52.371Z,12.23
2022-11-24T12:22:30.567Z,12.30
2022-11-24T12:25:15.923Z,12.27
2022-11-24T12:27:52.152Z,12.31
2022-11-24T12:30:23.524Z,12.36
2022-11-24T12:33:08.504Z,12.29
2022-11-24T12:35:39.838Z,12.31
2022-11-24T12:38:22.606Z,12.28
2022-11-24T12:41:33.564Z,12.24
2022-11-24T12:43:58.896Z,12.25
2022-11-24T12:46:38.792Z,12.25
2022-11-24T12:49:21.038Z,12.21
2022-11-24T12:51:55.990Z,12.27
2022-11-24T12:54:26.026Z,12.26
2022-11-24T12:57:05.985Z,12.22
2022-11-24T12:59:40.266Z,12.23
2022-11-24T13:02:24.088Z,12.21
2022-11-24T13:05:00.822Z,12.19
2022-11-24T13:07:41.180Z,12.18
2022-11-24T13:10:55.408Z,12.13
2022-11-24T13:13:25.194Z,12.20
2022-11-24T13:19:08.601Z,12.16
2022-11-24T13:21:52.072Z,12.12
2022-11-24T13:24:25.471Z,12.13
2022-11-24T13:26:55.784Z,12.12
2022-11-24T13:29:39.004Z,12.09
2022-11-24T13:32:53.032Z,12.07
2022-11-24T13:35:20.982Z,12.09
2022-11-24T13:37:51.854Z,12.10
2022-11-24T13:40:45.877Z,12.07
2022-11-24T13:43:21.923Z,12.12
2022-11-24T13:45:53.797Z,12.13
2022-11-24T13:48:59.527Z,12.12
2022-11-24T13:51:27.917Z,12.18
2022-11-24T13:54:00.932Z,12.18
2022-11-24T13:56:32.069Z,12.20
2022-11-24T13:59:02.688Z,12.19
2022-11-24T14:01:33.970Z,12.19
2022-11-24T14:04:32.918Z,12.16
2022-11-24T14:07:08.274Z,12.18
2022-11-24T14:09:42.868Z,12.18
2022-11-24T14:12:15.696Z,12.12
2022-11-24T14:14:45.551Z,12.15
2022-11-24T14:17:23.029Z,12.15
2022-11-24T14:19:53.553Z,12.12
2022-11-24T14:22:24.437Z,12.10
2022-11-24T14:24:57.218Z,12.08
2022-11-24T14:27:30.904Z,12.07
2022-11-24T14:30:01.684Z,12.09
2022-11-24T14:32:31.114Z,12.08
2022-11-24T14:34:59.341Z,12.08
2022-11-24T14:37:27.384Z,12.11
2022-11-24T14:39:55.234Z,12.03
2022-11-24T14:42:25.432Z,12.05
2022-11-24T14:44:56.723Z,12.02
2022-11-24T14:47:31.244Z,12.00
2022-11-24T14:50:11.031Z,11.94
2022-11-24T14:52:45.716Z,11.94
2022-11-24T14:55:26.191Z,11.90
2022-11-24T14:57:55.655Z,11.92
2022-11-24T15:00:29.298Z,11.88
2022-11-24T15:03:13.535Z,11.81
2022-11-24T15:05:58.743Z,11.77
2022-11-24T15:08:29.146Z,11.77
2022-11-24T15:11:00.425Z,11.72
2022-11-24T15:13:30.218Z,11.71
2022-11-24T15:16:03.284Z,11.69
2022-11-24T15:18:38.800Z,11.68
2022-11-24T15:21:08.909Z,11.67
2022-11-24T15:23:41.279Z,11.63
2022-11-24T15:26:31.510Z,11.55
2022-11-24T15:29:02.487Z,11.53
2022-11-24T15:31:30.494Z,11.49
2022-11-24T15:33:58.409Z,11.42
2022-11-24T15:36:27.651Z,11.37
2022-11-24T15:38:55.668Z,11.31
2022-11-24T15:41:29.242Z,11.25
2022-11-24T15:43:59.328Z,11.20
2022-11-24T15:46:27.968Z,11.13
2022-11-24T15:48:56.261Z,11.05
2022-11-24T15:51:27.825Z,10.98
2022-11-24T15:54:01.062Z,10.94
2022-11-24T15:56:34.135Z,10.88
2022-11-24T15:59:02.067Z,10.85
2022-11-24T16:01:32.710Z,10.83
2022-11-24T16:04:03.401Z,10.78
2022-11-24T16:06:33.059Z,10.74
2022-11-24T16:09:01.478Z,10.69
2022-11-24T16:11:29.352Z,10.62
2022-11-24T16:13:57.293Z,10.58
2022-11-24T16:16:25.697Z,10.52
2022-11-24T16:18:54.102Z,10.44
2022-11-24T16:21:22.126Z,10.38
2022-11-24T16:23:52.007Z,10.33
2022-11-24T16:26:19.866Z,10.26
2022-11-24T16:28:47.881Z,10.22
2022-11-24T16:31:16.611Z,10.17
2022-11-24T16:33:46.333Z,10.12
2022-11-24T16:36:14.901Z,10.09
2022-11-24T16:38:42.736Z,10.03
2022-11-24T16:41:12.480Z,9.99
2022-11-24T16:43:40.616Z,9.97
2022-11-24T16:46:19.096Z,9.94
2022-11-24T16:48:48.952Z,9.92
2022-11-24T16:51:19.411Z,9.87
2022-11-24T16:53:47.729Z,9.83
2022-11-24T16:56:17.640Z,9.80
2022-11-24T16:58:45.679Z,9.74
2022-11-24T17:01:14.723Z,9.69
2022-11-24T17:03:42.747Z,9.62
2022-11-24T17:06:12.411Z,9.58
2022-11-24T17:08:41.541Z,9.54
2022-11-24T17:11:10.305Z,9.52
2022-11-24T17:13:42.199Z,9.48
2022-11-24T17:16:12.167Z,9.46
2022-11-24T17:18:41.117Z,9.42
2022-11-24T17:21:12.512Z,9.39
2022-11-24T17:23:40.318Z,9.32
2022-11-24T17:26:11.687Z,9.25
2022-11-24T17:28:41.275Z,9.24
2022-11-24T17:31:09.847Z,9.26
2022-11-24T17:33:37.766Z,9.30
2022-11-24T17:36:08.135Z,9.32
2022-11-24T17:38:37.374Z,9.34
2022-11-24T17:41:05.344Z,9.35
2022-11-24T17:43:33.481Z,9.34
2022-11-24T17:46:04.237Z,9.36
2022-11-24T17:48:33.102Z,9.37
2022-11-24T17:51:06.331Z,9.36
2022-11-24T17:53:36.274Z,9.36
2022-11-24T17:56:05.769Z,9.38
2022-11-24T17:58:41.353Z,9.37
2022-11-24T18:01:13.362Z,9.37
2022-11-24T18:03:41.683Z,9.35
2022-11-24T18:06:11.461Z,9.36
2022-11-24T18:08:41.253Z,9.35
2022-11-24T18:11:11.149Z,9.34
2022-11-24T18:13:56.466Z,9.35
2022-11-24T18:16:30.018Z,9.37
2022-11-24T18:19:14.359Z,9.38
2022-11-24T18:21:43.848Z,9.37
2022-11-24T18:24:13.293Z,9.37
2022-11-24T18:26:42.778Z,9.36
2022-11-24T18:29:11.420Z,9.35
2022-11-24T18:31:41.178Z,9.32
2022-11-24T18:34:09.595Z,9.30
2022-11-24T18:36:37.961Z,9.27
2022-11-24T18:39:07.454Z,9.25
2022-11-24T18:41:35.593Z,9.24
2022-11-24T18:44:07.683Z,9.20
2022-11-24T18:46:35.935Z,9.18
2022-11-24T18:49:05.821Z,9.18
2022-11-24T18:51:33.779Z,9.16
2022-11-24T18:54:03.028Z,9.14
2022-11-24T18:56:31.513Z,9.13
2022-11-24T18:58:59.402Z,9.13
2022-11-24T19:01:29.467Z,9.15
2022-11-24T19:03:59.993Z,9.17
2022-11-24T19:06:32.497Z,9.18
2022-11-24T19:09:02.403Z,9.17
2022-11-24T19:11:32.678Z,9.15
2022-11-24T19:14:01.895Z,9.13
2022-11-24T19:16:30.335Z,9.09
2022-11-24T19:19:00.204Z,9.08
2022-11-24T19:21:31.577Z,9.05
2022-11-24T19:24:04.947Z,9.04
2022-11-24T19:26:35.258Z,9.02
2022-11-24T19:29:03.692Z,9.01
2022-11-24T19:31:31.946Z,9.00
2022-11-24T19:34:00.176Z,8.98
2022-11-24T19:36:29.827Z,8.98
2022-11-24T19:38:59.618Z,8.96
2022-11-24T19:41:29.351Z,8.95
2022-11-24T19:43:58.869Z,8.94
2022-11-24T19:46:29.857Z,8.96
2022-11-24T19:49:00.569Z,8.97
2022-11-24T19:51:31.987Z,8.97
2022-11-24T19:54:00.719Z,8.97
2022-11-24T19:56:30.130Z,8.98
2022-11-24T19:58:58.411Z,8.96
2022-11-24T20:01:28.261Z,8.95
2022-11-24T20:03:58.852Z,8.93
2022-11-24T20:06:28.260Z,8.90
2022-11-24T20:08:58.521Z,8.87
2022-11-24T20:11:26.500Z,8.85
2022-11-24T20:13:54.618Z,8.81
2022-11-24T20:16:26.613Z,8.78
2022-11-24T20:18:56.732Z,8.77
2022-11-24T20:21:27.677Z,8.76
2022-11-24T20:23:59.266Z,8.74
2022-11-24T20:26:29.274Z,8.71
2022-11-24T20:28:59.294Z,8.69
2022-11-24T20:31:29.379Z,8.69
2022-11-24T20:33:57.544Z,8.71
2022-11-24T20:36:26.930Z,8.73
2022-11-24T20:38:55.152Z,8.74
2022-11-24T20:41:27.051Z,8.73
2022-11-24T20:43:56.596Z,8.72
2022-11-24T20:46:26.177Z,8.69
2022-11-24T20:48:55.012Z,8.66
2022-11-24T20:51:25.222Z,8.65
2022-11-24T20:53:55.371Z,8.63
2022-11-24T20:56:26.334Z,8.61
2022-11-24T20:58:55.333Z,8.61
2022-11-24T21:01:25.336Z,8.58
2022-11-24T21:03:55.620Z,8.60
2022-11-24T21:06:24.377Z,8.59
2022-11-24T21:08:52.657Z,8.59
2022-11-24T21:11:21.721Z,8.58
2022-11-24T21:13:52.018Z,8.57
2022-11-24T21:16:22.464Z,8.58
2022-11-24T21:18:52.402Z,8.61
2022-11-24T21:21:21.412Z,8.62
2022-11-24T21:23:50.513Z,8.68
2022-11-24T21:26:19.464Z,8.69
2022-11-24T21:28:48.762Z,8.70
2022-11-24T21:31:20.698Z,8.68
2022-11-24T21:33:50.381Z,8.68
2022-11-24T21:36:21.107Z,8.67
2022-11-24T21:38:51.807Z,8.66
2022-11-24T21:41:20.708Z,8.65
2022-11-24T21:43:49.012Z,8.64
2022-11-24T21:46:18.778Z,8.65
2022-11-24T21:48:46.648Z,8.64
2022-11-24T21:51:16.593Z,8.65
2022-11-24T21:53:45.876Z,8.65
2022-11-24T21:56:15.658Z,8.66
2022-11-24T21:58:47.604Z,8.67
2022-11-24T22:01:16.679Z,8.70
2022-11-24T22:03:46.923Z,8.71
2022-11-24T22:06:15.305Z,8.77
2022-11-24T22:08:43.266Z,8.82
2022-11-24T22:11:15.019Z,8.86
2022-11-24T22:13:44.234Z,8.87
2022-11-24T22:16:13.541Z,8.89
2022-11-24T22:18:43.164Z,8.88
2022-11-24T22:21:15.003Z,8.86
2022-11-24T22:23:43.725Z,8.87
2022-11-24T22:26:14.110Z,8.85
2022-11-24T22:28:42.739Z,8.87
2022-11-24T22:31:12.995Z,8.83
2022-11-24T22:33:41.328Z,8.89
2022-11-24T22:36:09.600Z,8.89
2022-11-24T22:38:39.274Z,8.93
2022-11-24T22:41:09.213Z,8.93
2022-11-24T22:43:38.513Z,8.94
2022-11-24T22:46:07.026Z,8.94
2022-11-24T22:48:35.263Z,8.95
2022-11-24T22:51:05.029Z,8.97
2022-11-24T22:53:33.090Z,9.02
2022-11-24T22:56:07.743Z,9.07
2022-11-24T22:58:35.558Z,9.09
2022-11-24T23:01:07.045Z,9.11
2022-11-24T23:03:35.643Z,9.10
2022-11-24T23:06:05.039Z,9.12
2022-11-24T23:08:34.498Z,9.12
2022-11-24T23:11:03.346Z,9.12
2022-11-24T23:13:32.920Z,9.10
2022-11-24T23:16:02.908Z,9.14
2022-11-24T23:18:31.277Z,9.14
2022-11-24T23:21:05.915Z,9.12
2022-11-24T23:23:33.908Z,9.15
2022-11-24T23:26:02.483Z,9.16
2022-11-24T23:28:30.336Z,9.15
2022-11-24T23:31:05.058Z,9.14
2022-11-24T23:33:35.665Z,9.15
2022-11-24T23:36:04.732Z,9.16
2022-11-24T23:38:33.552Z,9.17
2022-11-24T23:41:04.478Z,9.20
2022-11-24T23:43:32.655Z,9.24
2022-11-24T23:46:04.203Z,9.25
2022-11-24T23:48:32.689Z,9.27
2022-11-24T23:51:05.452Z,9.27
2022-11-24T23:53:33.890Z,9.26
2022-11-24T23:56:02.090Z,9.25
2022-11-24T23:58:30.493Z,9.25
